Sign in

Advertise on goboko.com

You can reach many thousands of active pilots each month by advertising on goboko.com.

Please contact us for details.

Advertising

Info

Aviation weather - KJYO

METAR KJYO 281635Z AUTO 31013G22KT 10SM SCT049 SCT085 27/17 A2970 RMK AO2

TAF KIAD 271139Z 2712/2818 24007KT P6SM BKN050 OVC130 FM271800 22012KT P6SM VCTS BKN050CB BKN130 FM272200 22012KT 5SM SHRA VCTS BKN050CB BKN130 FM280400 22008KT P6SM SCT050 SCT130 FM281200 28010G18KT P6SM BKN050

ADDS Experimental. Do not use for flight-related decisions.

Javascript required. Ce site nécessite javascript